Time;durP1;ratioP1;P1;durP2;ratioP2;P2;SDS_P1;SDS_P2;PMS_P1;PMS_P2;Temp;Humidity;BMP_temperature;BMP_pressure;BME280_temperature;BME280_humidity;BME280_pressure;Samples;Min_cycle;Max_cycle;Signal;HPM_P1;HPM_P2
2021/07/09 00:01:03;;;;;;;5.47;3.78;;;15.70;99.90;;;;;;4996290;28;20080;-96
2021/07/09 00:03:29;;;;;;;7.22;3.53;;;15.70;99.90;;;;;;4993546;28;20042;-96
2021/07/09 00:05:55;;;;;;;6.75;4.03;;;15.60;99.90;;;;;;4994692;28;20114;-96
2021/07/09 00:08:20;;;;;;;8.00;3.85;;;15.60;99.90;;;;;;4993437;28;20030;-96
2021/07/09 00:10:46;;;;;;;5.40;3.95;;;15.60;99.90;;;;;;4994816;28;20118;-95
2021/07/09 00:13:12;;;;;;;6.70;4.20;;;15.50;99.90;;;;;;4994778;28;20098;-96
2021/07/09 00:15:38;;;;;;;5.72;4.20;;;15.50;99.90;;;;;;4998713;28;20052;-96
2021/07/09 00:18:04;;;;;;;4.57;3.40;;;15.50;99.90;;;;;;4994224;28;20034;-96
2021/07/09 00:20:29;;;;;;;7.75;3.78;;;15.50;99.90;;;;;;4993037;28;20057;-96
2021/07/09 00:22:55;;;;;;;4.88;3.92;;;15.50;99.90;;;;;;4994266;28;20081;-96
2021/07/09 00:25:22;;;;;;;6.97;3.75;;;15.40;99.90;;;;;;4994110;28;20037;-96
2021/07/09 00:27:48;;;;;;;6.95;4.15;;;15.40;99.90;;;;;;4996812;28;20026;-96
2021/07/09 00:30:14;;;;;;;6.03;3.65;;;15.30;99.90;;;;;;4997947;28;20073;-96
2021/07/09 00:32:39;;;;;;;6.82;3.92;;;15.20;99.90;;;;;;4996376;28;20019;-96
2021/07/09 00:35:05;;;;;;;7.72;4.07;;;15.20;99.90;;;;;;4997504;28;20085;-96
2021/07/09 00:37:31;;;;;;;5.78;4.05;;;15.20;99.90;;;;;;4995948;28;20046;-95
2021/07/09 00:39:56;;;;;;;4.97;4.05;;;15.20;99.90;;;;;;4995777;28;20038;-96
2021/07/09 00:42:22;;;;;;;5.45;4.00;;;15.20;99.90;;;;;;4996990;28;20395;-96
2021/07/09 00:44:48;;;;;;;9.18;4.32;;;15.20;99.90;;;;;;5001477;28;20041;-96
2021/07/09 00:47:13;;;;;;;6.57;4.15;;;15.20;99.90;;;;;;5005533;28;20145;-96
2021/07/09 00:49:39;;;;;;;5.70;4.30;;;15.20;99.90;;;;;;4997892;28;20385;-96
2021/07/09 00:52:05;;;;;;;8.65;4.80;;;15.20;99.90;;;;;;4997091;28;20026;-96
2021/07/09 00:54:32;;;;;;;6.47;4.97;;;15.20;99.90;;;;;;4997315;28;20125;-96
2021/07/09 00:56:57;;;;;;;6.13;4.63;;;15.20;99.90;;;;;;4998856;28;20483;-96
2021/07/09 00:59:24;;;;;;;6.15;4.68;;;15.20;99.90;;;;;;5001341;28;20042;-96
2021/07/09 01:01:52;;;;;;;8.18;4.70;;;15.20;99.90;;;;;;4998924;28;20109;-96
2021/07/09 01:04:17;;;;;;;6.40;4.70;;;15.20;99.90;;;;;;4998126;28;20498;-96
2021/07/09 01:06:43;;;;;;;6.38;4.75;;;15.10;99.90;;;;;;4999437;28;20026;-96
2021/07/09 01:09:10;;;;;;;5.07;4.03;;;15.00;99.90;;;;;;4998583;28;20026;-96
2021/07/09 01:11:36;;;;;;;8.18;4.90;;;15.00;99.90;;;;;;4997701;28;20113;-96
2021/07/09 01:14:02;;;;;;;7.18;4.30;;;15.00;99.90;;;;;;4997697;28;20064;-96
2021/07/09 01:16:28;;;;;;;7.18;4.70;;;15.00;99.90;;;;;;4999376;28;20030;-96
2021/07/09 01:18:54;;;;;;;7.45;4.63;;;15.00;99.90;;;;;;4997753;28;20022;-96
2021/07/09 01:21:20;;;;;;;7.03;4.55;;;15.00;99.90;;;;;;4997814;28;20030;-96
2021/07/09 01:23:48;;;;;;;9.85;4.65;;;15.00;99.90;;;;;;4998292;28;20030;-96
2021/07/09 01:26:13;;;;;;;5.82;4.28;;;15.00;99.90;;;;;;4998541;28;20117;-96
2021/07/09 01:28:40;;;;;;;9.38;4.65;;;15.00;99.90;;;;;;4998385;28;20022;-95
2021/07/09 01:31:07;;;;;;;5.85;4.78;;;15.00;99.90;;;;;;4997679;28;20030;-96
2021/07/09 01:33:34;;;;;;;6.25;5.25;;;14.90;99.90;;;;;;4997316;28;20514;-96
2021/07/09 01:36:00;;;;;;;9.57;4.45;;;14.90;99.90;;;;;;4996628;28;20030;-96
2021/07/09 01:38:27;;;;;;;8.05;4.57;;;14.90;99.90;;;;;;4997343;28;20039;-96
2021/07/09 01:40:52;;;;;;;6.50;4.40;;;14.80;99.90;;;;;;4980823;28;20027;-96
2021/07/09 01:43:18;;;;;;;7.82;5.13;;;14.80;99.90;;;;;;5000484;28;20033;-96
2021/07/09 01:45:44;;;;;;;7.38;4.60;;;14.90;99.90;;;;;;4985766;28;20101;-95
2021/07/09 01:48:10;;;;;;;5.55;4.25;;;14.80;99.90;;;;;;4998216;28;20026;-96
2021/07/09 01:50:35;;;;;;;6.30;4.13;;;14.70;99.90;;;;;;4997532;28;20480;-95
2021/07/09 01:53:02;;;;;;;7.38;4.43;;;14.70;99.90;;;;;;4998457;28;20069;-95
2021/07/09 01:55:28;;;;;;;8.13;4.85;;;14.60;99.90;;;;;;4998396;28;20034;-96
2021/07/09 01:57:54;;;;;;;7.68;4.20;;;14.50;99.90;;;;;;5009464;28;20030;-96
2021/07/09 02:00:22;;;;;;;8.25;3.85;;;14.50;99.90;;;;;;5018878;28;20097;-96
2021/07/09 02:02:49;;;;;;;8.13;4.35;;;14.40;99.90;;;;;;5014739;28;20035;-96
2021/07/09 02:05:17;;;;;;;4.25;3.85;;;14.40;99.90;;;;;;5008201;28;20049;-96
2021/07/09 02:07:45;;;;;;;8.93;4.50;;;14.40;99.90;;;;;;5006800;28;20019;-96
2021/07/09 02:10:12;;;;;;;8.75;4.20;;;14.50;99.90;;;;;;5004413;28;20056;-96
2021/07/09 02:12:39;;;;;;;5.40;3.78;;;14.50;99.90;;;;;;5005068;28;20034;-95
2021/07/09 02:15:10;;;;;;;7.53;4.10;;;14.40;99.90;;;;;;4996816;28;20034;-96
2021/07/09 02:17:37;;;;;;;6.07;4.45;;;14.40;99.90;;;;;;4997123;28;20384;-96
2021/07/09 02:20:05;;;;;;;6.60;4.30;;;14.40;99.90;;;;;;4996046;28;20084;-95
2021/07/09 02:22:31;;;;;;;6.13;4.10;;;14.40;99.90;;;;;;4995223;28;20022;-95
2021/07/09 02:24:57;;;;;;;7.40;4.15;;;14.40;99.90;;;;;;4995556;28;20045;-96
2021/07/09 02:27:22;;;;;;;6.60;4.30;;;14.40;99.90;;;;;;4995034;28;20060;-95
2021/07/09 02:29:48;;;;;;;6.43;4.10;;;14.30;99.90;;;;;;4994884;28;20089;-96
2021/07/09 02:32:14;;;;;;;8.80;4.65;;;14.30;99.90;;;;;;4996024;28;20037;-96
2021/07/09 02:34:41;;;;;;;6.47;5.05;;;14.30;99.90;;;;;;4996104;28;20026;-96
2021/07/09 02:37:09;;;;;;;6.55;4.75;;;14.30;99.90;;;;;;4999342;28;20074;-95
2021/07/09 02:39:37;;;;;;;7.05;4.60;;;14.20;99.90;;;;;;4998671;28;20077;-96
2021/07/09 02:42:03;;;;;;;10.20;4.50;;;14.10;99.90;;;;;;4996727;28;20134;-96
2021/07/09 02:44:29;;;;;;;7.10;4.55;;;14.10;99.90;;;;;;4996664;28;20064;-95
2021/07/09 02:46:54;;;;;;;11.00;5.00;;;14.10;99.90;;;;;;5013560;28;20042;-95
2021/07/09 02:49:23;;;;;;;7.95;5.03;;;14.00;99.90;;;;;;5017455;28;20073;-96
2021/07/09 02:51:50;;;;;;;9.27;5.95;;;14.00;99.90;;;;;;5017880;28;20026;-96
2021/07/09 02:54:16;;;;;;;8.25;4.55;;;14.00;99.90;;;;;;5018256;28;20034;-96
2021/07/09 02:56:42;;;;;;;5.82;4.35;;;14.00;99.90;;;;;;5017830;28;20026;-95
2021/07/09 02:59:07;;;;;;;6.57;4.28;;;13.90;99.90;;;;;;5001142;28;20444;-95
2021/07/09 03:01:34;;;;;;;7.00;4.68;;;13.90;99.90;;;;;;4995057;28;20022;-96
2021/07/09 03:03:59;;;;;;;8.00;5.18;;;13.90;99.90;;;;;;4994860;28;20033;-95
2021/07/09 03:06:25;;;;;;;9.05;4.80;;;13.80;99.90;;;;;;4994458;28;20022;-96
2021/07/09 03:08:51;;;;;;;5.57;4.40;;;13.70;99.90;;;;;;4997694;28;20034;-96
2021/07/09 03:11:18;;;;;;;9.25;5.88;;;13.70;99.90;;;;;;4994752;28;20430;-96
2021/07/09 03:13:43;;;;;;;8.68;5.03;;;13.60;99.90;;;;;;4994880;28;20030;-96
2021/07/09 03:16:09;;;;;;;5.35;4.07;;;13.60;99.90;;;;;;4994601;28;20076;-96
2021/07/09 03:18:35;;;;;;;8.05;5.75;;;13.60;99.90;;;;;;4994469;28;20480;-96
2021/07/09 03:21:01;;;;;;;9.93;5.20;;;13.50;99.90;;;;;;4994500;28;20027;-96
2021/07/09 03:23:26;;;;;;;8.25;5.35;;;13.50;99.90;;;;;;4995058;28;20033;-96
2021/07/09 03:25:52;;;;;;;7.40;5.28;;;13.50;99.90;;;;;;5002089;28;20244;-96
2021/07/09 03:28:18;;;;;;;15.57;7.45;;;13.50;99.90;;;;;;5001224;28;20094;-96
2021/07/09 03:30:44;;;;;;;8.88;5.93;;;13.50;99.90;;;;;;4995173;28;20117;-96
2021/07/09 03:33:10;;;;;;;10.55;5.82;;;13.40;99.90;;;;;;4995060;28;20036;-95
2021/07/09 03:35:37;;;;;;;8.65;5.63;;;13.50;99.90;;;;;;4993641;28;20080;-96
2021/07/09 03:38:03;;;;;;;8.75;5.57;;;13.40;99.90;;;;;;4994339;28;20058;-95
2021/07/09 03:40:29;;;;;;;10.25;5.90;;;13.40;99.90;;;;;;4996484;28;20434;-96
2021/07/09 03:42:54;;;;;;;9.82;5.80;;;13.40;99.90;;;;;;4993481;28;20019;-95
2021/07/09 03:45:21;;;;;;;10.95;5.93;;;13.40;99.90;;;;;;4993494;28;20038;-96
2021/07/09 03:47:47;;;;;;;8.25;5.85;;;13.40;99.90;;;;;;4977582;28;20018;-96
2021/07/09 03:50:14;;;;;;;9.40;5.63;;;13.30;99.90;;;;;;4993402;28;20094;-95
2021/07/09 03:52:39;;;;;;;8.10;5.63;;;13.30;99.90;;;;;;4993529;28;20023;-96
2021/07/09 03:55:06;;;;;;;8.05;5.57;;;13.30;99.90;;;;;;4993426;28;20488;-95
2021/07/09 03:57:33;;;;;;;9.02;6.10;;;13.30;99.90;;;;;;4993408;28;20034;-94
2021/07/09 03:59:59;;;;;;;8.45;6.28;;;13.30;99.90;;;;;;4994571;28;20061;-95
2021/07/09 04:02:24;;;;;;;11.25;5.50;;;13.30;99.90;;;;;;4997339;28;20085;-96
2021/07/09 04:04:50;;;;;;;10.80;6.50;;;13.30;99.90;;;;;;4997325;28;20029;-95
2021/07/09 04:07:16;;;;;;;11.70;6.45;;;13.20;99.90;;;;;;4997244;28;20038;-96
2021/07/09 04:09:41;;;;;;;7.55;5.57;;;13.20;99.90;;;;;;4997359;28;20037;-95
2021/07/09 04:12:07;;;;;;;9.82;6.50;;;13.20;99.90;;;;;;4997074;28;20033;-95
2021/07/09 04:14:33;;;;;;;9.13;5.82;;;13.10;99.90;;;;;;4996975;28;20100;-95
2021/07/09 04:16:59;;;;;;;11.18;6.30;;;13.10;99.90;;;;;;4997202;28;20105;-95
2021/07/09 04:19:26;;;;;;;9.93;5.85;;;13.10;99.90;;;;;;4997628;28;20038;-95
2021/07/09 04:21:51;;;;;;;10.15;6.05;;;13.10;99.90;;;;;;4997130;28;20077;-95
2021/07/09 04:24:17;;;;;;;10.38;6.28;;;13.10;99.90;;;;;;4996834;28;20026;-95
2021/07/09 04:26:43;;;;;;;13.52;6.45;;;13.00;99.90;;;;;;4996622;28;20042;-96
2021/07/09 04:29:09;;;;;;;10.65;5.72;;;13.10;99.90;;;;;;5005713;28;20113;-96
2021/07/09 04:31:34;;;;;;;10.32;6.07;;;13.10;99.90;;;;;;4996093;28;20117;-96
2021/07/09 04:34:00;;;;;;;8.15;5.47;;;13.00;99.90;;;;;;4996819;28;20030;-95
2021/07/09 04:36:26;;;;;;;10.15;6.13;;;13.10;99.90;;;;;;4996816;28;20101;-96
2021/07/09 04:38:51;;;;;;;8.30;5.80;;;13.10;99.90;;;;;;4980669;28;20050;-95
2021/07/09 04:41:17;;;;;;;9.43;6.38;;;13.10;99.90;;;;;;4997469;28;20446;-95
2021/07/09 04:43:43;;;;;;;8.13;5.47;;;13.10;99.90;;;;;;4996182;28;20041;-95
2021/07/09 04:46:10;;;;;;;14.50;7.47;;;13.10;99.90;;;;;;4996501;28;20073;-95
2021/07/09 04:48:35;;;;;;;10.60;6.90;;;13.00;99.90;;;;;;4996149;28;20038;-96
2021/07/09 04:51:01;;;;;;;10.32;7.07;;;13.00;99.90;;;;;;4994993;28;20110;-95
2021/07/09 04:53:28;;;;;;;8.65;6.05;;;13.00;99.90;;;;;;4984707;28;20038;-96
2021/07/09 04:55:54;;;;;;;8.73;5.85;;;13.00;99.90;;;;;;4976771;28;20046;-96
2021/07/09 04:58:19;;;;;;;10.27;6.75;;;13.00;99.90;;;;;;4977057;28;20035;-95
2021/07/09 05:00:45;;;;;;;10.77;6.28;;;13.00;99.90;;;;;;4992523;28;20501;-95
2021/07/09 05:03:11;;;;;;;9.85;6.25;;;12.90;99.90;;;;;;4996833;28;20026;-94
2021/07/09 05:05:36;;;;;;;9.15;6.10;;;13.00;99.90;;;;;;4996248;28;20068;-96
2021/07/09 05:08:03;;;;;;;9.73;6.03;;;13.00;99.90;;;;;;4998046;28;20030;-96
2021/07/09 05:10:28;;;;;;;10.27;6.75;;;13.00;99.90;;;;;;4996135;28;20065;-96
2021/07/09 05:12:54;;;;;;;10.13;6.18;;;13.00;99.90;;;;;;4998249;28;20022;-95
2021/07/09 05:15:20;;;;;;;10.27;6.60;;;13.00;99.90;;;;;;4998180;28;20022;-96
2021/07/09 05:17:45;;;;;;;10.13;6.07;;;13.00;99.90;;;;;;4996032;28;20022;-96
2021/07/09 05:20:12;;;;;;;11.88;7.38;;;13.10;99.90;;;;;;4996378;28;20447;-96
2021/07/09 05:22:38;;;;;;;12.73;8.20;;;13.10;99.90;;;;;;4996460;28;20039;-95
2021/07/09 05:25:04;;;;;;;9.63;6.25;;;13.10;99.90;;;;;;4996026;28;20110;-95
2021/07/09 05:27:31;;;;;;;11.40;6.88;;;13.10;99.90;;;;;;4996765;28;20031;-96
2021/07/09 05:29:57;;;;;;;11.05;7.22;;;13.10;99.90;;;;;;4997240;28;20019;-96
2021/07/09 05:32:26;;;;;;;9.95;6.18;;;13.10;99.90;;;;;;4996461;28;20030;-95
2021/07/09 05:34:54;;;;;;;8.38;5.88;;;13.10;99.90;;;;;;5009690;28;20014;-95
2021/07/09 05:37:21;;;;;;;8.98;6.35;;;13.10;99.90;;;;;;5019634;28;20054;-95
2021/07/09 05:39:47;;;;;;;9.68;5.80;;;13.10;99.90;;;;;;5016156;28;20073;-96
2021/07/09 05:42:14;;;;;;;8.88;5.93;;;13.10;99.90;;;;;;5005613;28;20026;-95
2021/07/09 05:44:40;;;;;;;9.57;5.47;;;13.20;99.90;;;;;;5006236;28;20121;-95
2021/07/09 05:47:06;;;;;;;8.73;5.65;;;13.20;99.90;;;;;;5002572;28;20026;-95
2021/07/09 05:49:33;;;;;;;7.82;5.53;;;13.20;99.90;;;;;;5002943;28;20052;-95
2021/07/09 05:51:58;;;;;;;10.07;5.72;;;13.20;99.90;;;;;;5000347;28;20117;-96
2021/07/09 05:54:24;;;;;;;9.88;6.32;;;13.20;99.90;;;;;;4997886;28;20068;-95
2021/07/09 05:56:50;;;;;;;7.00;4.97;;;13.30;99.90;;;;;;4996366;28;20034;-96
2021/07/09 05:59:16;;;;;;;11.90;6.53;;;13.30;99.90;;;;;;4997042;28;20049;-96
2021/07/09 06:01:41;;;;;;;9.35;6.03;;;13.40;99.90;;;;;;4995243;28;20026;-96
2021/07/09 06:04:07;;;;;;;11.15;7.00;;;13.50;99.90;;;;;;5001912;28;20030;-96
2021/07/09 06:06:33;;;;;;;11.82;6.88;;;13.60;99.90;;;;;;5003927;28;20022;-96
2021/07/09 06:08:59;;;;;;;10.05;5.72;;;13.60;99.90;;;;;;5002782;28;20030;-96
2021/07/09 06:11:27;;;;;;;11.13;7.43;;;13.60;99.90;;;;;;4998869;28;20085;-96
2021/07/09 06:13:53;;;;;;;11.40;6.18;;;13.70;99.90;;;;;;4991889;28;20357;-96
2021/07/09 06:16:19;;;;;;;15.80;7.97;;;13.80;99.90;;;;;;4994594;28;21080;-96
2021/07/09 06:18:45;;;;;;;15.25;8.13;;;13.80;99.90;;;;;;4992608;28;20044;-96
2021/07/09 06:21:10;;;;;;;9.63;6.40;;;13.80;99.90;;;;;;4975045;28;20034;-96
2021/07/09 06:23:36;;;;;;;8.98;6.10;;;13.90;99.90;;;;;;4992727;28;20033;-95
2021/07/09 06:26:02;;;;;;;11.63;7.88;;;13.90;99.90;;;;;;5010394;28;20027;-95
2021/07/09 06:28:27;;;;;;;13.85;7.32;;;14.00;99.90;;;;;;4996301;28;20109;-96
2021/07/09 06:30:53;;;;;;;9.88;6.75;;;14.10;99.90;;;;;;4995963;28;20030;-95
2021/07/09 06:33:19;;;;;;;11.50;6.53;;;14.10;99.90;;;;;;4991739;28;20134;-96
2021/07/09 06:35:45;;;;;;;9.10;6.53;;;14.20;99.90;;;;;;4994532;28;20033;-96
2021/07/09 06:38:11;;;;;;;10.52;6.97;;;14.30;99.90;;;;;;4994933;28;20053;-96
2021/07/09 06:40:37;;;;;;;8.43;6.20;;;14.40;99.90;;;;;;4996225;28;20030;-96
2021/07/09 06:43:03;;;;;;;11.20;6.85;;;14.50;99.90;;;;;;4994572;28;20109;-96
2021/07/09 06:45:29;;;;;;;9.50;6.13;;;14.60;99.90;;;;;;4994195;28;20026;-95
2021/07/09 06:47:55;;;;;;;11.32;7.30;;;14.70;99.90;;;;;;4992210;28;20022;-96
2021/07/09 06:50:20;;;;;;;11.15;7.75;;;14.80;99.90;;;;;;4992827;28;20032;-96
2021/07/09 06:52:46;;;;;;;10.65;6.20;;;14.90;99.90;;;;;;4993150;28;20176;-96
2021/07/09 06:55:13;;;;;;;8.80;5.63;;;15.00;99.90;;;;;;4993131;28;20030;-96
2021/07/09 06:57:45;;;;;;;10.07;6.75;;;15.00;99.90;;;;;;4993902;28;20022;-96
2021/07/09 07:00:12;;;;;;;8.65;5.97;;;15.10;99.90;;;;;;5015309;28;20606;-95
2021/07/09 07:02:38;;;;;;;11.40;6.72;;;15.30;99.90;;;;;;4994619;28;20038;-96
2021/07/09 07:05:04;;;;;;;11.10;6.35;;;15.40;99.90;;;;;;4990641;28;20026;-96
2021/07/09 07:07:29;;;;;;;13.23;7.05;;;15.50;99.90;;;;;;4994281;28;20046;-96
2021/07/09 07:09:57;;;;;;;10.13;6.45;;;15.50;99.90;;;;;;4996517;28;20033;-96
2021/07/09 07:12:27;;;;;;;9.65;6.70;;;15.60;99.90;;;;;;4997411;28;20021;-96
2021/07/09 07:14:53;;;;;;;9.47;5.90;;;15.70;99.90;;;;;;4990908;28;20019;-96
2021/07/09 07:17:45;;;;;;;8.55;5.65;;;15.70;99.90;;;;;;5304175;23;20074;-96
2021/07/09 07:20:15;;;;;;;8.50;5.75;;;15.80;99.90;;;;;;5299908;23;20065;-96
2021/07/09 07:28:08;;;;;;;10.73;5.43;;;16.10;99.90;;;;;;5076839;23;20098;-96
2021/07/09 07:33:11;;;;;;;6.63;4.97;;;16.30;99.90;;;;;;5192723;23;20575;-96
2021/07/09 07:35:40;;;;;;;9.38;5.18;;;16.40;99.90;;;;;;4980111;28;20019;-96
2021/07/09 07:38:07;;;;;;;6.22;4.90;;;16.40;99.90;;;;;;4973391;28;20038;-96
2021/07/09 07:40:36;;;;;;;8.65;5.05;;;16.50;99.90;;;;;;4970688;28;20039;-95
2021/07/09 07:43:04;;;;;;;11.20;5.93;;;16.60;99.90;;;;;;4990211;28;20030;-95
2021/07/09 07:45:30;;;;;;;8.00;5.05;;;16.80;99.90;;;;;;4986694;28;20057;-94
2021/07/09 07:47:56;;;;;;;5.93;4.60;;;16.90;99.90;;;;;;4986219;28;20022;-94
2021/07/09 07:50:22;;;;;;;6.85;4.20;;;17.10;99.90;;;;;;4972201;28;20093;-95
2021/07/09 07:52:49;;;;;;;7.75;4.70;;;17.10;99.90;;;;;;4991440;28;20031;-94
2021/07/09 07:55:15;;;;;;;7.75;5.20;;;17.20;99.90;;;;;;4993621;28;20030;-94
2021/07/09 07:57:40;;;;;;;7.13;5.10;;;17.30;99.90;;;;;;4999307;28;20030;-96
2021/07/09 08:00:07;;;;;;;7.30;5.22;;;17.40;99.90;;;;;;4985270;28;20030;-96
2021/07/09 08:02:33;;;;;;;8.25;5.15;;;17.50;99.90;;;;;;4985312;28;20022;-96
2021/07/09 08:04:58;;;;;;;6.72;4.15;;;17.60;99.90;;;;;;4980930;28;20030;-95
2021/07/09 08:07:24;;;;;;;6.50;5.05;;;17.60;99.90;;;;;;4979468;28;20038;-94
2021/07/09 08:09:50;;;;;;;5.93;4.45;;;17.70;99.90;;;;;;4981823;28;20042;-96
2021/07/09 08:12:15;;;;;;;6.07;4.30;;;17.90;99.90;;;;;;4997974;28;20028;-96
2021/07/09 08:14:41;;;;;;;6.47;4.55;;;18.00;99.90;;;;;;4984971;28;20090;-96
2021/07/09 08:17:10;;;;;;;5.65;3.78;;;18.10;99.90;;;;;;4982335;28;20049;-95
2021/07/09 08:19:37;;;;;;;6.35;4.13;;;18.20;99.90;;;;;;4984441;28;20069;-96
2021/07/09 08:22:02;;;;;;;5.55;4.25;;;18.20;99.90;;;;;;5006181;28;20027;-95
2021/07/09 08:24:29;;;;;;;5.78;4.43;;;18.30;99.90;;;;;;5017556;28;20041;-95
2021/07/09 08:27:03;;;;;;;7.43;4.40;;;18.30;99.90;;;;;;4997752;28;20057;-96
2021/07/09 08:29:29;;;;;;;4.93;3.90;;;18.50;99.90;;;;;;5003763;28;20054;-96
2021/07/09 08:31:57;;;;;;;6.40;4.32;;;18.50;99.90;;;;;;4983767;28;20049;-96
2021/07/09 08:34:23;;;;;;;8.52;4.22;;;18.60;99.90;;;;;;4987780;28;20023;-96
2021/07/09 08:36:49;;;;;;;5.05;3.95;;;18.60;99.90;;;;;;4981947;28;20033;-96
2021/07/09 08:39:15;;;;;;;7.72;4.63;;;18.70;99.90;;;;;;5001548;28;20030;-96
2021/07/09 08:41:45;;;;;;;8.15;4.53;;;18.70;99.90;;;;;;5000854;28;20026;-96
2021/07/09 08:44:12;;;;;;;6.97;4.70;;;18.80;99.60;;;;;;4980773;28;20064;-96
2021/07/09 08:46:39;;;;;;;5.13;3.85;;;19.00;99.40;;;;;;4983139;28;20030;-95
2021/07/09 08:49:08;;;;;;;5.97;3.60;;;19.10;99.00;;;;;;4992287;28;20049;-96
2021/07/09 08:51:34;;;;;;;8.38;4.60;;;19.30;98.50;;;;;;4999248;28;20018;-95
2021/07/09 08:54:00;;;;;;;5.53;3.83;;;19.50;98.00;;;;;;4998850;28;20384;-96
2021/07/09 08:56:26;;;;;;;5.00;4.13;;;19.70;97.40;;;;;;4981590;28;20033;-94
2021/07/09 08:58:52;;;;;;;4.07;3.17;;;19.90;96.80;;;;;;4999938;28;20040;-95
2021/07/09 09:01:17;;;;;;;5.47;3.47;;;20.10;95.90;;;;;;4979569;28;20076;-96
2021/07/09 09:03:43;;;;;;;5.50;4.45;;;20.30;95.30;;;;;;4980904;28;20057;-96
2021/07/09 09:06:15;;;;;;;7.47;3.70;;;20.50;94.90;;;;;;4980443;28;20041;-95
2021/07/09 09:08:41;;;;;;;4.68;3.40;;;20.50;93.70;;;;;;4996867;28;20431;-96
2021/07/09 09:11:08;;;;;;;5.53;3.55;;;20.50;93.00;;;;;;4996791;28;20037;-95
2021/07/09 09:13:36;;;;;;;5.18;3.80;;;20.50;92.80;;;;;;4981526;28;20031;-96
2021/07/09 09:16:15;;;;;;;4.18;3.70;;;20.60;92.80;;;;;;4983439;28;20030;-96
2021/07/09 09:18:47;;;;;;;6.90;3.83;;;20.90;92.30;;;;;;4979901;28;20065;-96
2021/07/09 09:21:15;;;;;;;4.93;3.50;;;21.10;91.70;;;;;;4989214;28;20062;-95
2021/07/09 09:23:53;;;;;;;5.00;4.10;;;21.30;91.20;;;;;;5018912;28;20010;-96
2021/07/09 09:26:38;;;;;;;4.90;3.60;;;21.40;90.80;;;;;;5004191;28;20037;-95
2021/07/09 09:29:07;;;;;;;4.78;3.75;;;21.50;90.30;;;;;;5001137;28;20121;-96
2021/07/09 09:31:37;;;;;;;5.60;3.95;;;21.50;89.10;;;;;;4993243;28;21131;-96
2021/07/09 09:34:04;;;;;;;10.75;3.47;;;21.50;88.60;;;;;;4996485;28;20033;-96
2021/07/09 09:36:30;;;;;;;3.75;3.35;;;21.60;88.20;;;;;;4990144;28;20034;-96
2021/07/09 09:39:02;;;;;;;5.25;3.92;;;21.70;87.60;;;;;;5000017;28;20065;-96
2021/07/09 09:41:28;;;;;;;4.30;3.22;;;21.80;86.60;;;;;;4982679;28;20023;-96
2021/07/09 09:44:13;;;;;;;4.55;3.53;;;22.00;85.60;;;;;;4986551;28;20026;-96
2021/07/09 09:46:39;;;;;;;5.22;3.45;;;22.10;84.20;;;;;;4985684;28;20388;-94
2021/07/09 09:49:05;;;;;;;4.75;3.13;;;22.20;83.70;;;;;;4981488;28;20037;-96
2021/07/09 09:51:39;;;;;;;5.05;2.97;;;22.20;80.70;;;;;;4969130;28;20030;-95
2021/07/09 09:54:10;;;;;;;3.72;2.85;;;22.20;80.90;;;;;;4984684;28;20030;-96
2021/07/09 09:56:46;;;;;;;4.25;3.08;;;22.30;81.10;;;;;;4981695;28;20022;-96
2021/07/09 09:59:25;;;;;;;3.47;3.10;;;22.50;80.90;;;;;;5006196;28;20097;-96
2021/07/09 10:02:05;;;;;;;4.18;3.10;;;22.70;79.50;;;;;;5237764;23;20924;-95
2021/07/09 10:07:28;;;;;;;3.15;2.85;;;23.10;77.50;;;;;;5257758;23;20081;-96
2021/07/09 10:09:59;;;;;;;4.75;2.80;;;23.10;75.90;;;;;;5000055;28;20042;-96
2021/07/09 10:12:25;;;;;;;;;;;23.30;75.10;;;;;;4992434;28;20054;-96
2021/07/09 10:14:53;;;;;;;3.38;2.70;;;23.40;75.40;;;;;;4986725;28;19901;-96
2021/07/09 10:17:21;;;;;;;3.13;2.72;;;23.60;74.40;;;;;;4975559;28;20050;-96
2021/07/09 10:19:48;;;;;;;3.30;2.60;;;23.70;73.10;;;;;;4989076;28;20026;-96
2021/07/09 10:22:14;;;;;;;3.38;2.55;;;23.90;72.30;;;;;;4978613;28;20427;-96
2021/07/09 10:24:43;;;;;;;2.67;2.28;;;24.00;71.50;;;;;;4992607;28;20498;-96
2021/07/09 10:27:17;;;;;;;3.33;2.63;;;24.10;69.20;;;;;;4982258;28;20081;-96
2021/07/09 10:29:45;;;;;;;3.72;2.80;;;24.10;68.70;;;;;;4979868;28;20121;-96
2021/07/09 10:32:11;;;;;;;2.75;2.45;;;24.10;68.20;;;;;;4981987;28;20023;-96
2021/07/09 10:34:38;;;;;;;3.65;2.50;;;24.10;67.30;;;;;;4975835;28;20029;-96
2021/07/09 10:37:17;;;;;;;2.88;2.40;;;23.90;67.40;;;;;;4974914;28;20003;-96
2021/07/09 10:40:06;;;;;;;3.47;2.70;;;23.80;66.60;;;;;;4991200;28;20069;-96
2021/07/09 10:42:40;;;;;;;3.03;2.63;;;23.90;67.50;;;;;;5005308;28;20091;-96
2021/07/09 10:45:26;;;;;;;4.93;3.13;;;23.90;67.60;;;;;;4986194;28;20022;-96
2021/07/09 10:47:54;;;;;;;4.68;2.80;;;23.80;67.10;;;;;;4989032;28;20035;-95
2021/07/09 10:50:48;;;;;;;3.00;2.63;;;23.70;67.50;;;;;;4986042;28;20085;-96
2021/07/09 10:53:13;;;;;;;5.38;2.95;;;23.70;67.70;;;;;;4981798;28;20031;-96
2021/07/09 10:55:59;;;;;;;3.35;2.60;;;23.70;67.60;;;;;;4982386;28;20022;-96
2021/07/09 10:58:41;;;;;;;5.18;2.78;;;23.80;67.40;;;;;;4976701;28;20070;-96
2021/07/09 11:01:12;;;;;;;3.25;2.70;;;23.80;67.70;;;;;;4982742;28;20038;-96
2021/07/09 11:03:59;;;;;;;2.70;2.50;;;24.00;67.70;;;;;;4983344;28;20498;-96
2021/07/09 11:06:31;;;;;;;3.00;2.15;;;24.30;67.00;;;;;;4990464;28;20026;-96
2021/07/09 11:08:57;;;;;;;2.25;2.05;;;24.40;66.30;;;;;;4991180;28;20043;-96
2021/07/09 11:11:47;;;;;;;3.10;2.08;;;24.50;65.20;;;;;;4992749;28;20019;-96
2021/07/09 11:14:34;;;;;;;4.10;2.15;;;24.50;64.80;;;;;;4978974;28;20055;-96
2021/07/09 11:17:12;;;;;;;5.97;2.57;;;24.50;64.10;;;;;;5145046;23;20120;31
2021/07/09 11:19:38;;;;;;;4.90;2.67;;;24.50;63.30;;;;;;4979208;28;20074;-96
2021/07/09 11:22:06;;;;;;;2.75;2.30;;;24.50;63.60;;;;;;4992982;28;20030;-96
2021/07/09 11:24:49;;;;;;;2.28;2.08;;;24.50;63.30;;;;;;4973821;23;20146;-96
2021/07/09 11:27:15;;;;;;;2.72;2.40;;;24.40;62.90;;;;;;4950376;29;20028;-94
2021/07/09 11:29:43;;;;;;;3.35;2.95;;;24.20;63.30;;;;;;5130546;23;20085;-91
2021/07/09 11:32:14;;;;;;;4.20;2.53;;;24.20;63.80;;;;;;4959088;28;20033;-93
2021/07/09 11:34:54;;;;;;;2.80;2.55;;;24.20;63.90;;;;;;4955874;28;20477;-95
2021/07/09 11:37:26;;;;;;;3.10;2.50;;;24.20;63.70;;;;;;4956488;28;20110;-95
2021/07/09 11:39:54;;;;;;;3.08;2.40;;;24.20;63.60;;;;;;4957014;28;20475;-95
2021/07/09 11:42:25;;;;;;;3.40;2.65;;;24.00;63.30;;;;;;4941667;28;20118;-94
2021/07/09 11:44:53;;;;;;;3.20;2.47;;;24.00;64.20;;;;;;4957222;28;20055;-95
2021/07/09 11:47:22;;;;;;;4.90;2.85;;;24.10;64.50;;;;;;4939321;29;20122;-95
2021/07/09 11:49:58;;;;;;;4.28;2.78;;;24.10;64.40;;;;;;4939226;29;20493;-95
2021/07/09 11:52:25;;;;;;;5.30;2.80;;;24.30;64.60;;;;;;4939396;29;20027;-96
2021/07/09 11:54:52;;;;;;;3.90;2.83;;;24.30;64.40;;;;;;4939213;28;20110;-96
2021/07/09 11:57:23;;;;;;;3.72;2.72;;;24.10;64.00;;;;;;4940117;29;20019;-96
2021/07/09 11:59:55;;;;;;;3.50;2.83;;;24.00;64.80;;;;;;4942380;29;20046;-96
2021/07/09 12:02:21;;;;;;;3.50;2.67;;;24.00;65.30;;;;;;4939934;29;20039;-95
2021/07/09 12:05:02;;;;;;;4.53;2.67;;;24.00;65.70;;;;;;4939430;29;20028;-95
2021/07/09 12:07:33;;;;;;;3.05;2.75;;;24.00;65.60;;;;;;4939473;28;20384;-96
2021/07/09 12:10:00;;;;;;;3.72;2.75;;;24.00;65.60;;;;;;4939511;29;20024;-96
2021/07/09 12:12:29;;;;;;;4.60;2.70;;;23.90;65.70;;;;;;4950542;29;20058;-96
2021/07/09 12:15:00;;;;;;;4.27;2.83;;;23.70;66.20;;;;;;4954770;29;20055;-95
2021/07/09 12:17:29;;;;;;;5.88;3.10;;;23.60;66.60;;;;;;4954808;29;20071;-94
2021/07/09 12:20:14;;;;;;;3.97;2.88;;;23.50;66.70;;;;;;4954785;28;20074;-95
2021/07/09 12:22:48;;;;;;;3.33;2.45;;;23.40;67.00;;;;;;4959267;29;20528;-94
2021/07/09 12:25:20;;;;;;;3.45;2.40;;;23.40;67.50;;;;;;4959599;29;20031;-96
2021/07/09 12:27:47;;;;;;;4.47;2.70;;;23.40;67.50;;;;;;4965557;29;20053;-94
2021/07/09 12:30:16;;;;;;;3.72;3.05;;;23.40;67.30;;;;;;4965236;29;20070;-96
2021/07/09 12:32:47;;;;;;;4.93;3.05;;;23.30;67.20;;;;;;4961632;29;20046;-96
2021/07/09 12:35:13;;;;;;;;;;;23.40;67.80;;;;;;4961948;28;20026;-96
2021/07/09 12:37:40;;;;;;;4.30;2.53;;;23.40;67.80;;;;;;4958441;29;19934;-96
2021/07/09 12:40:16;;;;;;;4.57;3.08;;;23.40;67.90;;;;;;4964037;28;20055;-95
2021/07/09 12:42:43;;;;;;;3.50;2.90;;;23.50;67.80;;;;;;4965515;28;20058;-96
2021/07/09 12:45:09;;;;;;;3.63;2.70;;;23.70;67.80;;;;;;4965382;28;20026;-96
2021/07/09 12:47:50;;;;;;;7.00;3.45;;;23.80;67.50;;;;;;4954354;29;20039;-95
2021/07/09 12:50:22;;;;;;;3.92;3.15;;;23.90;66.70;;;;;;4946505;29;20035;-95
2021/07/09 12:52:49;;;;;;;7.47;3.40;;;23.90;66.60;;;;;;4944412;29;20094;-96
2021/07/09 12:55:51;;;;;;;6.20;3.05;;;24.00;66.80;;;;;;4950179;29;20135;-96
2021/07/09 12:58:31;;;;;;;4.95;2.78;;;23.90;66.50;;;;;;4935867;29;20509;-96
2021/07/09 13:01:07;;;;;;;6.38;3.50;;;23.90;67.00;;;;;;4998316;23;20126;-96